createdAt,value
2023-02-11T00:01:18.349Z,43.78
2023-02-11T00:03:47.901Z,44.91
2023-02-11T00:06:16.010Z,43.97
2023-02-11T00:08:44.127Z,43.17
2023-02-11T00:11:15.561Z,43.84
2023-02-11T00:13:44.106Z,43.29
2023-02-11T00:16:14.964Z,43.29
2023-02-11T00:18:43.064Z,43.24
2023-02-11T00:21:14.899Z,43.91
2023-02-11T00:23:43.626Z,44.26
2023-02-11T00:26:15.150Z,43.94
2023-02-11T00:28:43.482Z,44.70
2023-02-11T00:31:11.582Z,44.21
2023-02-11T00:33:39.653Z,44.69
2023-02-11T00:36:09.698Z,45.16
2023-02-11T00:38:39.096Z,44.90
2023-02-11T00:41:07.183Z,44.78
2023-02-11T00:43:36.453Z,45.80
2023-02-11T00:46:04.682Z,44.86
2023-02-11T00:48:32.934Z,45.67
2023-02-11T00:51:00.983Z,45.45
2023-02-11T00:53:30.526Z,45.38
2023-02-11T00:56:01.077Z,44.38
2023-02-11T00:58:29.590Z,44.64
2023-02-11T01:00:58.543Z,45.01
2023-02-11T01:03:26.604Z,44.75
2023-02-11T01:05:54.722Z,44.47
2023-02-11T01:08:23.152Z,45.37
2023-02-11T01:10:56.693Z,45.12
2023-02-11T01:13:26.729Z,44.81
2023-02-11T01:15:55.333Z,45.23
2023-02-11T01:18:23.359Z,44.84
2023-02-11T01:20:53.100Z,45.17
2023-02-11T01:23:21.121Z,45.36
2023-02-11T01:25:49.465Z,45.51
2023-02-11T01:28:18.937Z,45.96
2023-02-11T01:30:48.413Z,45.85
2023-02-11T01:33:16.807Z,46.07
2023-02-11T01:35:45.566Z,45.05
2023-02-11T01:38:17.589Z,45.60
2023-02-11T01:40:49.210Z,45.38
2023-02-11T01:43:17.201Z,45.86
2023-02-11T01:46:03.878Z,45.60
2023-02-11T01:48:35.574Z,46.16
2023-02-11T01:51:08.109Z,45.98
2023-02-11T01:53:55.374Z,45.86
2023-02-11T01:56:43.381Z,45.46
2023-02-11T01:59:16.354Z,46.65
2023-02-11T02:01:49.581Z,46.02
2023-02-11T02:04:20.427Z,46.20
2023-02-11T02:06:54.521Z,46.08
2023-02-11T02:09:26.805Z,46.66
2023-02-11T02:11:55.075Z,46.58
2023-02-11T02:14:23.402Z,45.93
2023-02-11T02:16:54.011Z,47.12
2023-02-11T02:19:47.709Z,46.54
2023-02-11T02:22:56.745Z,46.68
2023-02-11T02:25:49.971Z,46.94
2023-02-11T02:28:48.106Z,47.22
2023-02-11T02:31:51.232Z,47.15
2023-02-11T02:34:28.492Z,46.50
2023-02-11T02:37:04.286Z,46.57
2023-02-11T02:39:37.084Z,46.31
2023-02-11T02:42:06.045Z,46.71
2023-02-11T02:44:34.936Z,46.96
2023-02-11T02:47:02.951Z,46.40
2023-02-11T02:49:32.461Z,47.16
2023-02-11T02:52:19.561Z,46.52
2023-02-11T02:55:21.605Z,46.86
2023-02-11T02:58:04.000Z,46.21
2023-02-11T03:00:37.523Z,46.05
2023-02-11T03:03:18.536Z,46.62
2023-02-11T03:05:56.140Z,46.09
2023-02-11T03:08:30.155Z,46.46
2023-02-11T03:11:00.299Z,46.84
2023-02-11T03:13:33.813Z,45.93
2023-02-11T03:16:08.410Z,45.90
2023-02-11T03:18:40.842Z,46.44
2023-02-11T03:21:11.407Z,46.16
2023-02-11T03:23:43.483Z,46.15
2023-02-11T03:26:19.698Z,45.71
2023-02-11T03:28:55.276Z,45.96
2023-02-11T03:31:31.976Z,46.23
2023-02-11T03:34:05.259Z,46.00
2023-02-11T03:36:41.309Z,45.81
2023-02-11T03:39:12.267Z,46.04
2023-02-11T03:41:41.826Z,45.51
2023-02-11T03:44:11.777Z,45.82
2023-02-11T03:46:43.207Z,44.93
2023-02-11T03:49:13.523Z,44.94
2023-02-11T03:51:43.221Z,45.47
2023-02-11T03:54:16.046Z,45.17
2023-02-11T03:56:50.406Z,45.61
2023-02-11T03:59:18.448Z,44.79
2023-02-11T04:01:46.425Z,45.14
2023-02-11T04:04:14.903Z,45.61
2023-02-11T04:06:44.546Z,45.27
2023-02-11T04:09:12.617Z,45.05
2023-02-11T04:11:40.588Z,45.85
2023-02-11T04:14:08.546Z,44.80
2023-02-11T04:16:36.569Z,45.88
2023-02-11T04:19:04.672Z,45.71
2023-02-11T04:21:32.749Z,45.33
2023-02-11T04:24:02.139Z,45.48
2023-02-11T04:26:30.103Z,45.90
2023-02-11T04:28:58.124Z,45.65
2023-02-11T04:31:26.190Z,45.72
2023-02-11T04:33:54.334Z,46.08
2023-02-11T04:36:22.282Z,45.41
2023-02-11T04:38:50.348Z,45.81
2023-02-11T04:41:19.812Z,46.40
2023-02-11T04:43:47.754Z,47.13
2023-02-11T04:46:15.764Z,47.38
2023-02-11T04:48:43.800Z,47.23
2023-02-11T04:51:11.800Z,47.15
2023-02-11T04:53:39.914Z,47.88
2023-02-11T04:56:08.266Z,47.98
2023-02-11T04:58:37.706Z,47.49
2023-02-11T05:01:09.176Z,48.23
2023-02-11T05:03:37.602Z,47.96
2023-02-11T05:06:06.508Z,48.08
2023-02-11T05:08:34.642Z,48.51
2023-02-11T05:11:03.153Z,48.52
2023-02-11T05:13:31.628Z,48.02
2023-02-11T05:16:01.213Z,48.16
2023-02-11T05:18:29.296Z,48.07
2023-02-11T05:20:57.647Z,48.19
2023-02-11T05:23:25.628Z,48.79
2023-02-11T05:25:53.601Z,48.60
2023-02-11T05:28:21.613Z,48.67
2023-02-11T05:30:50.076Z,48.16
2023-02-11T05:33:19.480Z,48.34
2023-02-11T05:35:47.455Z,48.60
2023-02-11T05:38:15.415Z,48.90
2023-02-11T05:40:43.425Z,48.72
2023-02-11T05:43:11.410Z,49.00
2023-02-11T05:45:39.408Z,49.03
2023-02-11T05:48:07.398Z,49.29
2023-02-11T05:50:36.783Z,49.41
2023-02-11T05:53:05.776Z,49.14
2023-02-11T05:55:34.108Z,49.53
2023-02-11T05:58:02.232Z,49.88
2023-02-11T06:00:30.219Z,50.17
2023-02-11T06:02:58.246Z,50.34
2023-02-11T06:05:26.381Z,49.83
2023-02-11T06:07:55.792Z,49.88
2023-02-11T06:10:23.831Z,49.90
2023-02-11T06:12:51.856Z,50.14
2023-02-11T06:15:19.983Z,50.28
2023-02-11T06:17:48.037Z,50.71
2023-02-11T06:20:16.174Z,50.95
2023-02-11T06:22:44.205Z,51.01
2023-02-11T06:25:13.746Z,51.86
2023-02-11T06:27:41.752Z,52.08
2023-02-11T06:30:11.056Z,52.01
2023-02-11T06:32:44.670Z,51.78
2023-02-11T06:35:13.117Z,51.94
2023-02-11T06:37:41.447Z,52.14
2023-02-11T06:40:09.776Z,52.61
2023-02-11T06:42:39.675Z,52.32
2023-02-11T06:45:09.519Z,52.18
2023-02-11T06:47:37.746Z,52.40
2023-02-11T06:50:06.250Z,52.13
2023-02-11T06:52:34.452Z,51.86
2023-02-11T06:55:02.629Z,51.77
2023-02-11T06:57:32.116Z,51.05
2023-02-11T07:00:01.561Z,50.89
2023-02-11T07:02:29.551Z,50.64
2023-02-11T07:04:57.533Z,50.37
2023-02-11T07:07:25.539Z,50.07
2023-02-11T07:09:53.623Z,50.21
2023-02-11T07:12:21.575Z,50.12
2023-02-11T07:14:49.540Z,50.15
2023-02-11T07:17:20.110Z,49.75
2023-02-11T07:19:48.137Z,49.97
2023-02-11T07:22:16.300Z,49.41
2023-02-11T07:24:44.353Z,49.67
2023-02-11T07:27:12.326Z,49.16
2023-02-11T07:29:40.283Z,49.04
2023-02-11T07:32:08.375Z,48.83
2023-02-11T07:34:38.087Z,49.17
2023-02-11T07:37:06.379Z,49.19
2023-02-11T07:39:34.402Z,49.54
2023-02-11T07:42:02.433Z,49.19
2023-02-11T07:44:30.516Z,48.94
2023-02-11T07:46:58.503Z,48.92
2023-02-11T07:49:26.709Z,49.00
2023-02-11T07:51:56.235Z,48.91
2023-02-11T07:54:24.245Z,47.45
2023-02-11T07:56:52.234Z,47.50
2023-02-11T07:59:22.867Z,47.18
2023-02-11T08:01:51.581Z,46.91
2023-02-11T08:04:19.684Z,46.88
2023-02-11T08:06:47.858Z,46.73
2023-02-11T08:09:18.024Z,47.43
2023-02-11T08:11:53.166Z,47.32
2023-02-11T08:14:21.671Z,46.81
2023-02-11T08:16:49.775Z,47.96
2023-02-11T08:19:18.449Z,47.97
2023-02-11T08:21:47.120Z,47.00
2023-02-11T08:24:15.195Z,46.98
2023-02-11T08:26:44.894Z,46.68
2023-02-11T08:29:15.104Z,46.92
2023-02-11T08:31:45.837Z,47.27
2023-02-11T08:34:18.325Z,46.74
2023-02-11T08:36:47.739Z,47.31
2023-02-11T08:39:20.290Z,46.55
2023-02-11T08:41:51.035Z,47.18
2023-02-11T08:44:19.718Z,47.11
2023-02-11T08:46:48.587Z,46.99
2023-02-11T08:49:17.007Z,47.49
2023-02-11T08:51:45.982Z,47.69
2023-02-11T08:54:14.541Z,47.41
2023-02-11T08:56:42.740Z,47.34
2023-02-11T08:59:14.641Z,46.66
2023-02-11T09:01:44.272Z,46.19
2023-02-11T09:04:12.634Z,46.47
2023-02-11T09:06:40.723Z,46.10
2023-02-11T09:09:13.673Z,45.52
2023-02-11T09:11:42.532Z,44.63
2023-02-11T09:14:19.492Z,45.08
2023-02-11T09:16:47.740Z,45.09
2023-02-11T09:19:15.783Z,44.64
2023-02-11T09:21:43.846Z,44.38
2023-02-11T09:24:12.639Z,44.49
2023-02-11T09:26:44.160Z,44.17
2023-02-11T09:29:13.764Z,43.80
2023-02-11T09:31:41.964Z,43.67
2023-02-11T09:34:10.174Z,43.54
2023-02-11T09:36:40.897Z,43.23
2023-02-11T09:39:12.704Z,43.11
2023-02-11T09:41:50.570Z,42.48
2023-02-11T09:44:24.269Z,42.81
2023-02-11T09:46:58.415Z,42.60
2023-02-11T09:49:35.042Z,42.35
2023-02-11T09:52:07.746Z,42.25
2023-02-11T09:54:45.929Z,42.46
2023-02-11T09:57:27.708Z,41.71
2023-02-11T09:59:58.782Z,42.12
2023-02-11T10:02:38.056Z,41.89
2023-02-11T10:05:19.133Z,41.75
2023-02-11T10:07:52.791Z,41.62
2023-02-11T10:10:41.318Z,41.90
2023-02-11T10:13:34.720Z,41.89
2023-02-11T10:16:12.830Z,41.59
2023-02-11T10:18:54.083Z,42.05
2023-02-11T10:21:32.362Z,42.15
2023-02-11T10:24:04.580Z,41.82
2023-02-11T10:26:34.493Z,42.04
2023-02-11T10:29:12.484Z,42.09
2023-02-11T10:31:45.701Z,42.25
2023-02-11T10:34:14.988Z,42.17
2023-02-11T10:36:45.633Z,42.62
2023-02-11T10:39:15.700Z,42.72
2023-02-11T10:41:46.468Z,42.66
2023-02-11T10:44:24.869Z,43.01
2023-02-11T10:46:56.342Z,43.23
2023-02-11T10:49:42.262Z,42.49
2023-02-11T10:52:21.497Z,41.93
2023-02-11T10:55:04.316Z,41.09
2023-02-11T10:57:36.239Z,40.86
2023-02-11T11:00:20.558Z,40.88
2023-02-11T11:02:57.041Z,39.84
2023-02-11T11:05:32.423Z,38.95
2023-02-11T11:08:03.231Z,39.15
2023-02-11T11:10:37.551Z,38.08
2023-02-11T11:13:05.628Z,37.82
2023-02-11T11:15:33.667Z,37.34
2023-02-11T11:18:22.632Z,36.82
2023-02-11T11:21:00.866Z,36.63
2023-02-11T11:23:31.012Z,36.25
2023-02-11T11:26:05.631Z,35.37
2023-02-11T11:28:39.833Z,35.38
2023-02-11T11:31:15.116Z,35.14
2023-02-11T11:33:45.628Z,35.20
2023-02-11T11:36:16.579Z,35.08
2023-02-11T11:38:50.298Z,34.85
2023-02-11T11:41:25.799Z,34.89
2023-02-11T11:43:59.239Z,34.84
2023-02-11T11:46:30.662Z,34.35
2023-02-11T11:49:08.592Z,34.30
2023-02-11T11:51:39.993Z,34.26
2023-02-11T11:54:13.837Z,33.90
2023-02-11T11:56:59.433Z,34.31
2023-02-11T11:59:28.350Z,34.23
2023-02-11T12:02:12.720Z,34.51
2023-02-11T12:04:58.004Z,34.39
2023-02-11T12:07:42.299Z,34.49
2023-02-11T12:10:35.289Z,34.71
2023-02-11T12:13:14.985Z,34.27
2023-02-11T12:15:55.721Z,34.62
2023-02-11T12:18:38.790Z,33.78
2023-02-11T12:21:25.069Z,33.61
2023-02-11T12:24:11.488Z,33.97
2023-02-11T12:26:46.860Z,34.10
2023-02-11T12:29:28.146Z,33.77
2023-02-11T12:32:08.041Z,33.96
2023-02-11T12:35:02.839Z,32.92
2023-02-11T12:37:47.516Z,33.84
2023-02-11T12:40:22.240Z,32.89
2023-02-11T12:43:15.599Z,32.82
2023-02-11T12:45:54.370Z,33.03
2023-02-11T12:48:59.484Z,32.40
2023-02-11T12:51:41.679Z,32.96
2023-02-11T12:54:20.774Z,32.65
2023-02-11T12:56:55.384Z,32.72
2023-02-11T12:59:39.654Z,32.19
2023-02-11T13:02:17.932Z,32.34
2023-02-11T13:04:50.892Z,32.16
2023-02-11T13:07:27.208Z,32.34
2023-02-11T13:10:02.302Z,31.96
2023-02-11T13:12:50.958Z,31.55
2023-02-11T13:15:19.313Z,31.33
2023-02-11T13:17:55.982Z,31.34
2023-02-11T13:20:34.063Z,31.05
2023-02-11T13:23:12.793Z,31.34
2023-02-11T13:25:49.163Z,31.05
2023-02-11T13:28:29.383Z,31.19
2023-02-11T13:31:02.906Z,30.92
2023-02-11T13:33:36.129Z,30.62
2023-02-11T13:36:26.061Z,30.73
2023-02-11T13:38:58.397Z,30.90
2023-02-11T13:41:32.002Z,30.52
2023-02-11T13:44:02.998Z,30.66
2023-02-11T13:46:50.552Z,30.54
2023-02-11T13:49:24.715Z,30.54
2023-02-11T13:51:54.382Z,30.46
2023-02-11T13:54:28.254Z,30.83
2023-02-11T13:57:28.106Z,30.50
2023-02-11T13:59:57.936Z,30.93
2023-02-11T14:02:47.642Z,30.67
2023-02-11T14:05:45.568Z,30.30
2023-02-11T14:08:39.055Z,30.62
2023-02-11T14:11:11.056Z,30.98
2023-02-11T14:14:06.305Z,30.54
2023-02-11T14:16:38.440Z,30.73
2023-02-11T14:19:07.358Z,30.72
2023-02-11T14:21:39.137Z,30.58
2023-02-11T14:24:48.122Z,30.48
2023-02-11T14:27:24.744Z,30.78
2023-02-11T14:30:11.818Z,30.27
2023-02-11T14:32:52.405Z,30.63
2023-02-11T14:35:29.029Z,30.69
2023-02-11T14:38:05.041Z,30.76
2023-02-11T14:40:36.643Z,30.37
2023-02-11T14:43:13.421Z,30.53
2023-02-11T14:45:46.611Z,30.68
2023-02-11T14:48:17.897Z,30.66
2023-02-11T14:50:50.068Z,31.10
2023-02-11T14:53:20.844Z,30.55
2023-02-11T14:55:53.634Z,31.11
2023-02-11T14:58:23.250Z,30.78
2023-02-11T15:00:59.255Z,30.94
2023-02-11T15:03:29.962Z,31.48
2023-02-11T15:06:00.555Z,31.34
2023-02-11T15:08:30.147Z,31.08
2023-02-11T15:10:59.057Z,31.24
2023-02-11T15:13:31.133Z,31.61
2023-02-11T15:16:09.416Z,31.84
2023-02-11T15:18:42.119Z,32.25
2023-02-11T15:21:11.177Z,31.78
2023-02-11T15:23:40.805Z,32.03
2023-02-11T15:26:14.978Z,32.23
2023-02-11T15:28:52.129Z,32.57
2023-02-11T15:31:24.476Z,32.87
2023-02-11T15:33:53.643Z,33.11
2023-02-11T15:36:28.842Z,33.54
2023-02-11T15:39:31.850Z,33.96
2023-02-11T15:42:26.923Z,34.22
2023-02-11T15:45:13.084Z,34.51
2023-02-11T15:47:48.416Z,34.97
2023-02-11T15:50:24.534Z,35.05
2023-02-11T15:52:53.630Z,35.07
2023-02-11T15:55:22.200Z,35.57
2023-02-11T15:57:55.049Z,35.75
2023-02-11T16:00:26.022Z,36.05
2023-02-11T16:02:55.688Z,36.22
2023-02-11T16:05:29.069Z,36.46
2023-02-11T16:07:57.597Z,36.51
2023-02-11T16:10:29.102Z,36.74
2023-02-11T16:13:04.077Z,36.75
2023-02-11T16:15:55.196Z,37.08
2023-02-11T16:18:38.867Z,36.97
2023-02-11T16:21:14.434Z,37.15
2023-02-11T16:23:43.463Z,37.16
2023-02-11T16:26:21.878Z,37.76
2023-02-11T16:28:50.271Z,37.27
2023-02-11T16:31:18.798Z,37.81
2023-02-11T16:33:48.246Z,37.46
2023-02-11T16:36:18.298Z,37.71
2023-02-11T16:38:46.339Z,38.70
2023-02-11T16:41:14.833Z,37.75
2023-02-11T16:43:42.908Z,37.78
2023-02-11T16:46:16.026Z,38.57
2023-02-11T16:48:44.430Z,38.12
2023-02-11T16:51:14.230Z,38.26
2023-02-11T16:53:42.352Z,38.33
2023-02-11T16:56:15.855Z,38.55
2023-02-11T16:58:43.980Z,38.69
2023-02-11T17:01:13.921Z,38.18
2023-02-11T17:03:43.852Z,38.19
2023-02-11T17:06:14.240Z,38.89
2023-02-11T17:08:42.639Z,38.92
2023-02-11T17:11:10.804Z,38.15
2023-02-11T17:13:39.620Z,39.04
2023-02-11T17:16:13.375Z,38.25
2023-02-11T17:18:41.426Z,38.41
2023-02-11T17:21:09.840Z,38.49
2023-02-11T17:23:39.286Z,38.99
2023-02-11T17:26:08.142Z,38.76
2023-02-11T17:28:36.281Z,38.62
2023-02-11T17:31:09.555Z,38.75
2023-02-11T17:33:38.943Z,39.62
2023-02-11T17:36:08.190Z,38.56
2023-02-11T17:38:37.336Z,39.58
2023-02-11T17:41:07.087Z,39.49
2023-02-11T17:43:35.167Z,38.81
2023-02-11T17:46:06.457Z,38.56
2023-02-11T17:48:34.531Z,39.29
2023-02-11T17:51:02.487Z,38.18
2023-02-11T17:53:30.835Z,38.37
2023-02-11T17:55:58.845Z,39.00
2023-02-11T17:58:28.185Z,38.94
2023-02-11T18:00:59.520Z,39.71
2023-02-11T18:03:27.697Z,39.53
2023-02-11T18:06:00.178Z,38.93
2023-02-11T18:08:28.202Z,40.25
2023-02-11T18:10:56.253Z,40.02
2023-02-11T18:13:24.287Z,38.84
2023-02-11T18:15:53.928Z,39.28
2023-02-11T18:18:22.044Z,39.74
2023-02-11T18:20:57.669Z,39.47
2023-02-11T18:23:25.819Z,39.28
2023-02-11T18:25:54.011Z,39.26
2023-02-11T18:28:22.349Z,40.12
2023-02-11T18:30:50.424Z,40.21
2023-02-11T18:33:19.802Z,40.37
2023-02-11T18:35:49.278Z,39.45
2023-02-11T18:38:18.673Z,40.06
2023-02-11T18:40:47.609Z,40.76
2023-02-11T18:43:15.690Z,40.80
2023-02-11T18:45:44.463Z,39.94
2023-02-11T18:48:12.868Z,40.42
2023-02-11T18:50:44.570Z,39.79
2023-02-11T18:53:14.124Z,39.97
2023-02-11T18:55:43.066Z,41.06
2023-02-11T18:58:11.149Z,40.11
2023-02-11T19:00:42.121Z,40.29
2023-02-11T19:03:10.112Z,40.52
2023-02-11T19:05:43.406Z,41.25
2023-02-11T19:08:11.928Z,41.28
2023-02-11T19:10:42.084Z,40.96
2023-02-11T19:13:10.247Z,40.65
2023-02-11T19:15:42.466Z,41.45
2023-02-11T19:18:10.894Z,41.56
2023-02-11T19:20:40.609Z,40.69
2023-02-11T19:23:10.455Z,41.49
2023-02-11T19:25:38.885Z,41.32
2023-02-11T19:28:07.129Z,40.97
2023-02-11T19:30:37.107Z,41.21
2023-02-11T19:33:05.238Z,41.30
2023-02-11T19:35:35.687Z,41.46
2023-02-11T19:38:04.454Z,42.12
2023-02-11T19:40:34.256Z,41.93
2023-02-11T19:43:02.207Z,41.43
2023-02-11T19:45:30.315Z,41.30
2023-02-11T19:47:58.809Z,41.59
2023-02-11T19:50:27.335Z,41.13
2023-02-11T19:52:55.532Z,42.31
2023-02-11T19:55:23.585Z,42.73
2023-02-11T19:57:52.961Z,42.54
2023-02-11T20:00:21.744Z,42.49
2023-02-11T20:02:49.869Z,42.93
2023-02-11T20:05:18.092Z,42.74
2023-02-11T20:07:46.227Z,42.83
2023-02-11T20:10:14.490Z,42.70
2023-02-11T20:12:42.594Z,42.15
2023-02-11T20:15:12.333Z,42.22
2023-02-11T20:17:40.292Z,41.74
2023-02-11T20:20:09.254Z,41.85
2023-02-11T20:22:37.291Z,41.97
2023-02-11T20:25:05.659Z,42.12
2023-02-11T20:27:33.668Z,42.10
2023-02-11T20:30:01.829Z,41.65
2023-02-11T20:32:37.870Z,42.07
2023-02-11T20:35:07.349Z,42.25
2023-02-11T20:37:35.396Z,42.45
2023-02-11T20:40:03.416Z,42.53
2023-02-11T20:42:31.464Z,42.46
2023-02-11T20:44:59.436Z,42.00
2023-02-11T20:47:27.388Z,42.37
2023-02-11T20:49:56.963Z,42.33
2023-02-11T20:52:24.937Z,42.08
2023-02-11T20:54:52.953Z,42.39
2023-02-11T20:57:20.912Z,42.63
2023-02-11T20:59:48.946Z,42.83
2023-02-11T21:02:16.926Z,42.85
2023-02-11T21:04:44.874Z,42.49
2023-02-11T21:07:14.374Z,42.45
2023-02-11T21:09:42.398Z,43.09
2023-02-11T21:12:10.438Z,42.97
2023-02-11T21:14:38.454Z,42.88
2023-02-11T21:17:06.742Z,43.02
2023-02-11T21:19:34.771Z,43.40
2023-02-11T21:22:02.884Z,43.56
2023-02-11T21:24:32.435Z,43.77
2023-02-11T21:27:00.725Z,43.67
2023-02-11T21:29:28.798Z,43.84
2023-02-11T21:31:57.045Z,44.06
2023-02-11T21:34:25.296Z,44.33
2023-02-11T21:36:53.278Z,44.42
2023-02-11T21:39:21.454Z,44.76
2023-02-11T21:41:51.648Z,45.15
2023-02-11T21:44:19.990Z,45.54
2023-02-11T21:46:48.072Z,46.36
2023-02-11T21:49:16.171Z,46.92
2023-02-11T21:51:44.214Z,46.64
2023-02-11T21:54:12.504Z,46.25
2023-02-11T21:56:40.714Z,46.69
2023-02-11T21:59:13.711Z,46.65
2023-02-11T22:01:41.930Z,46.80
2023-02-11T22:04:11.034Z,45.89
2023-02-11T22:06:39.840Z,46.16
2023-02-11T22:09:10.877Z,45.99
2023-02-11T22:11:39.358Z,46.03
2023-02-11T22:14:09.762Z,46.08
2023-02-11T22:16:37.987Z,45.82
2023-02-11T22:19:07.525Z,46.03
2023-02-11T22:21:35.610Z,45.96
2023-02-11T22:24:03.590Z,45.88
2023-02-11T22:26:31.639Z,45.64
2023-02-11T22:28:59.660Z,45.58
2023-02-11T22:31:31.023Z,45.56
2023-02-11T22:33:59.851Z,45.91
2023-02-11T22:36:29.630Z,45.79
2023-02-11T22:39:00.775Z,45.75
2023-02-11T22:41:28.910Z,45.44
2023-02-11T22:43:56.940Z,45.50
2023-02-11T22:46:25.156Z,45.23
2023-02-11T22:48:55.138Z,45.47
2023-02-11T22:51:25.162Z,45.41
2023-02-11T22:53:54.600Z,45.44
2023-02-11T22:56:22.806Z,45.38
2023-02-11T22:58:53.311Z,45.38
2023-02-11T23:01:21.680Z,45.50
2023-02-11T23:03:49.889Z,45.05
2023-02-11T23:06:19.684Z,45.38
2023-02-11T23:08:47.962Z,44.96
2023-02-11T23:11:19.365Z,45.00
2023-02-11T23:13:49.063Z,44.72
2023-02-11T23:16:19.132Z,44.56
2023-02-11T23:18:48.810Z,44.95
2023-02-11T23:21:21.304Z,44.95
2023-02-11T23:23:49.840Z,44.92
2023-02-11T23:26:19.980Z,44.96
2023-02-11T23:28:48.070Z,45.15
2023-02-11T23:31:18.479Z,45.13
2023-02-11T23:33:47.304Z,45.40
2023-02-11T23:36:16.126Z,45.71
2023-02-11T23:38:45.972Z,45.75
2023-02-11T23:41:14.750Z,45.59
2023-02-11T23:43:43.103Z,45.98
2023-02-11T23:46:11.833Z,45.62
2023-02-11T23:48:40.629Z,45.53
2023-02-11T23:51:09.695Z,45.64
2023-02-11T23:53:38.003Z,45.61
2023-02-11T23:56:11.684Z,45.64
2023-02-11T23:58:39.761Z,45.65
